| Date | Time | Temp. (oF) | Dew Point (oF) | Rel. Hum. (%) | Press. (in.) | Wind Dir. | Wind Speed (mph) | Hourly Rainfall (in.) |
|
|---|---|---|---|---|---|---|---|---|---|
| 1 | 10/31 | 00:00 | 47 | 36 | 67 | 29.80 | NNW | 0 | 0.00 |
| 2 | 10/30 | 23:00 | 48 | 35 | 62 | 29.82 | NNW | 0 | 0.00 |
| 3 | 10/30 | 22:00 | 48 | 35 | 61 | 29.82 | NNW | 0 | 0.00 |
| 4 | 10/30 | 21:00 | 49 | 34 | 58 | 29.83 | NNW | 0 | 0.00 |
| 5 | 10/30 | 20:00 | 49 | 36 | 61 | 29.86 | NNW | 0 | 0.00 |
| 6 | 10/30 | 19:00 | 51 | 36 | 57 | 29.87 | NNW | 0 | 0.00 |
| 7 | 10/30 | 18:00 | 53 | 35 | 51 | 29.88 | NNW | 0 | 0.00 |
| 8 | 10/30 | 17:00 | 57 | 29 | 35 | 29.88 | NNW | 0 | 0.00 |
| 9 | 10/30 | 16:00 | 59 | 30 | 34 | 29.91 | NNW | 0 | 0.00 |
| 10 | 10/30 | 15:00 | 57 | 32 | 39 | 29.94 | NNW | 0 | 0.00 |
| 11 | 10/30 | 14:00 | 56 | 32 | 41 | 30.01 | NNW | 0 | 0.00 |
| 12 | 10/30 | 13:00 | 54 | 36 | 51 | 30.06 | NNW | 0 | 0.00 |
| 13 | 10/30 | 12:00 | 52 | 35 | 53 | 30.12 | NNW | 0 | 0.00 |
| 14 | 10/30 | 11:00 | 50 | 34 | 56 | 30.14 | NNW | 0 | 0.00 |
| 15 | 10/30 | 10:00 | 47 | 35 | 64 | 30.16 | NNW | 0 | 0.00 |
| 16 | 10/30 | 09:00 | 40 | 39 | 99 | 30.18 | NNW | 0 | 0.00 |
| 17 | 10/30 | 08:00 | 34 | 33 | 100 | 30.17 | NNW | 0 | 0.00 |
| 18 | 10/30 | 07:00 | 34 | 33 | 99 | 30.17 | NNW | 0 | 0.00 |
| 19 | 10/30 | 06:00 | 35 | 33 | 94 | 30.19 | NNW | 0 | 0.00 |
| 20 | 10/30 | 05:00 | 37 | 33 | 86 | 30.17 | NNW | 0 | 0.00 |
| 21 | 10/30 | 04:00 | 39 | 33 | 79 | 30.18 | NNW | 0 | 0.00 |
| 22 | 10/30 | 03:00 | 39 | 31 | 74 | 30.18 | NNW | 0 | 0.00 |
| 23 | 10/30 | 02:00 | 40 | 29 | 67 | 30.17 | NNW | 0 | 0.00 |
| 24 | 10/30 | 01:00 | 41 | 30 | 65 | 30.17 | NNW | 0 | 0.00 |